Aviation Digital Data Service (ADDS)

Output produced by METARs form (0516 UTC 25 June 2017)
found at http://aviationweather.gov/adds/metars/
 
KMBS 242320Z 2500/2524 VRB05KT P6SM FEW050 
     FM250100 VRB05KT P6SM FEW050 
     TEMPO 2509/2512 6SM -SHRA OVC045 
     FM251400 25016G26KT P6SM BKN045 
     PROB30 2517/2521 4SM SHRA OVC030